.
WxDataArchive / Data Records for 2012-12-31
2012-12-30 December 2012 2013-01-01

Data Records for Monday, 31 December 2012

Time	Temp	Chill	HIndex	Humid	Dewpt	 Wind 	HiWind	WindDir	Rain 	Barom 
-----	----	-----	------	-----	-----	------	------	-------	-----	----- 
00:00	22.9	22.9	22.9	79	17.4	1	4	225	0.00	30.252 
00:05	23.0	23.0	23.0	79	17.5	0	3	225	0.00	30.252 
00:10	23.2	23.2	23.2	79	17.7	0	3	225	0.00	30.252 
00:15	23.3	23.3	23.3	79	17.8	1	3	225	0.00	30.247 
00:20	23.5	23.5	23.5	79	18.0	1	4	225	0.00	30.247 
00:25	23.6	23.6	23.6	79	18.1	1	4	225	0.00	30.247 
00:30	23.6	23.6	23.6	78	17.8	1	4	248	0.00	30.244 
00:35	23.8	23.8	23.8	78	18.0	1	3	248	0.00	30.244 
00:40	23.8	23.8	23.8	78	18.0	1	4	248	0.00	30.244 
00:45	23.8	23.8	23.8	78	18.0	1	5	248	0.00	30.230 
00:50	23.8	23.8	23.8	78	18.0	1	4	248	0.00	30.230 
00:55	23.9	23.9	23.9	78	18.1	0	3	225	0.00	30.230 
01:00	24.1	24.1	24.1	78	18.3	1	3	225	0.00	30.223 
01:05	24.2	24.2	24.2	78	18.3	1	3	248	0.00	30.223 
01:10	24.4	24.4	24.4	78	18.5	1	4	248	0.00	30.223 
01:15	24.4	24.4	24.4	78	18.5	1	3	248	0.00	30.211 
01:20	24.5	24.5	24.5	78	18.6	1	3	270	0.00	30.211 
01:25	24.7	24.7	24.7	78	18.8	1	3	248	0.00	30.211 
01:30	24.8	24.8	24.8	78	18.9	1	3	248	0.00	30.206 
01:35	24.8	24.8	24.8	78	18.9	1	3	248	0.00	30.206 
01:40	25.1	25.1	25.1	77	18.9	1	6	248	0.00	30.206 
01:45	25.1	25.1	25.1	77	18.9	1	3	248	0.00	30.201 
01:50	25.3	25.3	25.3	77	19.1	0	2	248	0.00	30.201 
01:55	25.4	25.4	25.4	77	19.2	1	4	248	0.00	30.201 
02:00	25.6	25.6	25.6	77	19.4	1	3	248	0.00	30.197 
02:05	25.6	25.6	25.6	77	19.4	1	5	248	0.00	30.197 
02:10	25.7	25.7	25.7	77	19.5	1	4	248	0.00	30.197 
02:15	25.7	25.7	25.7	77	19.5	1	4	248	0.00	30.193 
02:20	25.7	25.7	25.7	77	19.5	1	3	248	0.00	30.193 
02:25	25.7	25.7	25.7	77	19.5	1	4	248	0.00	30.193 
02:30	25.8	25.8	25.8	77	19.6	2	5	248	0.00	30.196 
02:35	25.8	25.8	25.8	77	19.6	1	2	225	0.00	30.196 
02:40	25.8	25.8	25.8	77	19.6	1	5	225	0.00	30.196 
02:45	25.8	25.8	25.8	77	19.6	1	5	248	0.00	30.193 
02:50	25.7	25.7	25.7	77	19.5	0	2	248	0.00	30.193 
02:55	25.7	25.7	25.7	77	19.5	0	2	248	0.00	30.193 
03:00	25.7	25.7	25.7	77	19.5	1	3	248	0.00	30.188 
03:05	25.6	25.6	25.6	78	19.7	1	4	248	0.00	30.188 
03:10	25.7	25.7	25.7	78	19.8	1	4	248	0.00	30.188 
03:15	25.7	25.7	25.7	78	19.8	1	4	248	0.00	30.171 
03:20	25.7	25.7	25.7	78	19.8	1	4	248	0.00	30.171 
03:25	25.8	25.8	25.8	79	20.2	1	4	225	0.00	30.171 
03:30	25.8	25.8	25.8	79	20.2	1	5	248	0.00	30.172 
03:35	26.0	26.0	26.0	79	20.4	1	5	248	0.00	30.172 
03:40	26.1	26.1	26.1	79	20.5	1	5	248	0.00	30.172 
03:45	26.1	26.1	26.1	79	20.5	1	3	248	0.00	30.179 
03:50	26.3	26.3	26.3	79	20.7	2	5	248	0.00	30.179 
03:55	26.4	26.4	26.4	79	20.8	2	6	248	0.00	30.179 
04:00	26.6	26.6	26.6	79	21.0	2	4	248	0.00	30.161 
04:05	26.6	26.6	26.6	79	21.0	1	3	225	0.00	30.161 
04:10	26.7	26.7	26.7	79	21.1	2	6	248	0.00	30.161 
04:15	26.7	26.7	26.7	79	21.1	1	4	248	0.00	30.146 
04:20	26.9	26.9	26.9	79	21.3	2	6	248	0.00	30.146 
04:25	26.9	26.9	26.9	79	21.3	2	10	248	0.00	30.146 
04:30	27.0	27.0	27.0	79	21.4	2	7	248	0.00	30.146 
04:35	27.0	27.0	27.0	79	21.4	1	5	248	0.00	30.146 
04:40	27.0	27.0	27.0	79	21.4	2	8	248	0.00	30.146 
04:45	27.2	27.2	27.2	79	21.6	1	5	248	0.00	30.131 
04:50	27.2	27.2	27.2	79	21.6	1	4	248	0.00	30.131 
04:55	27.2	27.2	27.2	79	21.6	1	5	270	0.00	30.131 
05:00	27.2	27.2	27.2	79	21.6	2	6	248	0.00	30.130 
05:05	27.3	27.3	27.3	79	21.7	1	5	248	0.00	30.130 
05:10	27.3	27.3	27.3	79	21.7	1	6	248	0.00	30.130 
05:15	27.3	27.3	27.3	79	21.7	2	4	248	0.00	30.133 
05:20	27.3	27.3	27.3	79	21.7	1	4	225	0.00	30.133 
05:25	27.3	27.3	27.3	79	21.7	1	5	225	0.00	30.133 
05:30	27.5	27.5	27.5	79	21.9	1	7	248	0.00	30.130 
05:35	27.5	27.5	27.5	79	21.9	2	6	248	0.00	30.130 
05:40	27.5	27.5	27.5	78	21.6	1	4	248	0.00	30.130 
05:45	27.5	27.5	27.5	78	21.6	1	6	248	0.00	30.130 
05:50	27.6	27.6	27.6	78	21.7	2	6	248	0.00	30.130 
05:55	27.6	27.6	27.6	78	21.7	2	5	248	0.00	30.130 
06:00	27.8	27.8	27.8	78	21.8	2	5	248	0.00	30.121 
06:05	27.8	27.8	27.8	77	21.5	2	5	248	0.00	30.121 
06:10	27.9	27.9	27.9	77	21.6	1	4	248	0.00	30.121 
06:15	28.1	28.1	28.1	77	21.8	1	5	248	0.00	30.121 
06:20	28.1	28.1	28.1	77	21.8	1	4	225	0.00	30.121 
06:25	28.2	28.2	28.2	76	21.6	1	4	225	0.00	30.121 
06:30	28.4	28.4	28.4	76	21.8	2	6	248	0.00	30.119 
06:35	28.4	28.4	28.4	76	21.8	2	6	248	0.00	30.119 
06:40	28.5	28.5	28.5	75	21.6	3	6	248	0.00	30.119 
06:45	28.7	28.7	28.7	75	21.8	2	5	248	0.00	30.123 
06:50	28.8	28.8	28.8	75	21.9	1	4	248	0.00	30.123 
06:55	28.8	28.8	28.8	74	21.6	2	6	248	0.00	30.123 
07:00	28.8	28.8	28.8	74	21.6	2	6	248	0.00	30.122 
07:05	29.0	29.0	29.0	74	21.8	2	5	248	0.00	30.122 
07:10	29.0	29.0	29.0	74	21.8	2	7	248	0.00	30.122 
07:15	29.0	29.0	29.0	73	21.4	1	5	248	0.00	30.117 
07:20	28.8	28.8	28.8	73	21.3	1	4	248	0.00	30.117 
07:25	28.8	28.8	28.8	73	21.3	2	4	248	0.00	30.117 
07:30	28.8	28.8	28.8	73	21.3	1	5	248	0.00	30.112 
07:35	28.8	28.8	28.8	73	21.3	1	5	248	0.00	30.112 
07:40	28.8	28.8	28.8	73	21.3	1	4	270	0.00	30.112 
07:45	28.8	28.8	28.8	74	21.6	1	4	248	0.00	30.110 
07:50	28.8	28.8	28.8	74	21.6	1	4	248	0.00	30.110 
07:55	28.8	28.8	28.8	73	21.3	1	4	248	0.00	30.110 
08:00	28.8	28.8	28.8	73	21.3	1	5	248	0.00	30.103 
08:05	28.8	28.8	28.8	74	21.6	1	4	248	0.00	30.103 
08:10	28.8	28.8	28.8	74	21.6	2	6	248	0.00	30.103 
08:15	28.8	28.8	28.8	73	21.3	1	4	248	0.00	30.100 
08:20	28.8	28.8	28.8	73	21.3	1	4	248	0.00	30.100 
08:25	28.8	28.8	28.8	73	21.3	1	4	225	0.00	30.100 
08:30	29.0	29.0	29.0	73	21.4	1	4	225	0.00	30.101 
08:35	29.0	29.0	29.0	73	21.4	1	4	225	0.00	30.101 
08:40	29.1	29.1	29.1	73	21.5	1	6	225	0.00	30.101 
08:45	29.3	29.3	29.3	73	21.7	1	4	248	0.00	30.099 
08:50	29.4	29.4	29.4	72	21.5	1	5	248	0.00	30.099 
08:55	29.5	29.5	29.5	72	21.6	1	6	248	0.00	30.099 
09:00	29.7	29.7	29.7	72	21.8	1	5	248	0.00	30.099 
09:05	29.8	29.8	29.8	72	21.9	1	4	248	0.00	30.099 
09:10	30.0	30.0	30.0	72	22.1	1	4	248	0.00	30.099 
09:15	30.1	30.1	30.1	71	21.9	2	4	248	0.00	30.095 
09:20	30.4	30.4	30.4	71	22.1	1	5	248	0.00	30.095 
09:25	30.6	30.6	30.6	71	22.3	1	5	248	0.00	30.095 
09:30	30.7	30.7	30.7	70	22.1	1	3	248	0.00	30.097 
09:35	30.7	30.7	30.7	70	22.1	1	5	248	0.00	30.097 
09:40	31.0	31.0	31.0	70	22.4	2	5	248	0.00	30.097 
09:45	31.2	31.2	31.2	69	22.2	2	6	248	0.00	30.098 
09:50	31.3	31.3	31.3	69	22.3	2	5	248	0.00	30.098 
09:55	31.5	31.5	31.5	68	22.2	2	6	248	0.00	30.098 
10:00	31.6	31.6	31.6	68	22.3	2	7	248	0.00	30.102 
10:05	31.8	31.8	31.8	67	22.1	2	7	225	0.00	30.102 
10:10	31.9	31.9	31.9	67	22.2	2	6	248	0.00	30.102 
10:15	32.1	32.1	32.1	67	22.4	2	7	248	0.00	30.099 
10:20	32.4	32.4	32.4	66	22.3	2	6	248	0.00	30.099 
10:25	32.5	32.5	32.5	66	22.4	3	8	248	0.00	30.099 
10:30	32.7	32.7	32.7	66	22.6	3	7	248	0.00	30.098 
10:35	32.9	32.9	32.9	66	22.8	2	6	225	0.00	30.098 
10:40	33.1	33.1	33.1	65	22.6	2	7	248	0.00	30.098 
10:45	33.2	33.2	33.2	65	22.7	2	4	248	0.00	30.096 
10:50	33.4	33.4	33.4	65	22.9	3	7	248	0.00	30.096 
10:55	33.5	33.5	33.5	65	23.0	3	8	248	0.00	30.096 
11:00	33.7	33.7	33.7	64	22.8	2	6	248	0.00	30.092 
11:05	33.8	33.8	33.8	64	22.9	2	7	248	0.00	30.092 
11:10	34.0	34.0	34.0	64	23.1	2	6	248	0.00	30.092 
11:15	34.1	34.1	34.1	64	23.2	3	7	248	0.00	30.085 
11:20	34.1	34.1	34.1	64	23.2	2	5	248	0.00	30.085 
11:25	34.3	34.3	34.3	64	23.4	2	6	248	0.00	30.085 
11:30	34.3	34.3	34.3	64	23.4	2	5	248	0.00	30.081 
11:35	34.4	34.4	34.4	63	23.1	3	7	248	0.00	30.081 
11:40	34.3	30.7	34.3	63	23.0	4	12	248	0.00	30.081 
11:45	34.4	34.4	34.4	64	23.5	2	7	248	0.00	30.079 
11:50	34.6	34.6	34.6	64	23.7	2	5	225	0.00	30.079 
11:55	34.7	34.7	34.7	64	23.8	2	6	248	0.00	30.079 
12:00	34.7	34.7	34.7	64	23.8	2	9	248	0.00	30.072 
12:05	34.9	34.9	34.9	64	24.0	2	6	248	0.00	30.072 
12:10	34.9	34.9	34.9	63	23.6	3	7	248	0.00	30.072 
12:15	34.9	34.9	34.9	63	23.6	2	6	248	0.01	30.058 
12:20	34.9	34.9	34.9	64	24.0	2	9	248	0.00	30.058 
12:25	34.9	34.9	34.9	64	24.0	2	7	225	0.00	30.058 
12:30	34.7	34.7	34.7	64	23.8	3	11	248	0.00	30.050 
12:35	34.7	34.7	34.7	65	24.2	3	7	248	0.00	30.050 
12:40	34.7	34.7	34.7	64	23.8	3	7	248	0.00	30.050 
12:45	34.6	34.6	34.6	65	24.1	3	7	248	0.00	30.049 
12:50	34.4	30.8	34.4	67	24.6	4	10	248	0.00	30.049 
12:55	34.1	34.1	34.1	70	25.4	3	9	248	0.00	30.049 
13:00	33.8	33.8	33.8	73	26.1	3	10	248	0.00	30.044 
13:05	33.5	33.5	33.5	76	26.8	2	9	248	0.00	30.044 
13:10	33.1	33.1	33.1	78	27.0	3	9	248	0.00	30.044 
13:15	32.7	32.7	32.7	81	27.5	2	6	225	0.00	30.037 
13:20	32.5	32.5	32.5	82	27.6	2	6	248	0.00	30.037 
13:25	32.4	32.4	32.4	83	27.8	3	12	248	0.00	30.037 
13:30	32.2	32.2	32.2	84	27.9	2	5	248	0.00	30.032 
13:35	32.2	32.2	32.2	85	28.2	2	10	248	0.00	30.032 
13:40	32.2	32.2	32.2	85	28.2	2	6	248	0.00	30.032 
13:45	32.2	32.2	32.2	86	28.5	2	7	248	0.00	30.032 
13:50	32.2	32.2	32.2	86	28.5	2	5	248	0.00	30.032 
13:55	32.1	32.1	32.1	86	28.4	2	6	248	0.00	30.032 
14:00	32.2	32.2	32.2	86	28.5	2	5	248	0.00	30.028 
14:05	32.1	32.1	32.1	87	28.7	2	7	248	0.00	30.028 
14:10	32.1	32.1	32.1	87	28.7	3	7	248	0.00	30.028 
14:15	32.1	32.1	32.1	87	28.7	3	11	248	0.00	30.029 
14:20	32.1	32.1	32.1	87	28.7	3	6	248	0.00	30.029 
14:25	31.9	31.9	31.9	88	28.8	3	5	248	0.00	30.029 
14:30	31.9	31.9	31.9	88	28.8	2	7	248	0.00	30.032 
14:35	31.9	31.9	31.9	88	28.8	3	9	248	0.00	30.032 
14:40	31.8	31.8	31.8	88	28.7	3	9	248	0.00	30.032 
14:45	31.8	31.8	31.8	88	28.7	3	9	248	0.00	30.041 
14:50	31.8	31.8	31.8	88	28.7	2	6	248	0.00	30.041 
14:55	31.8	31.8	31.8	89	28.9	3	6	248	0.00	30.041 
15:00	31.8	31.8	31.8	89	28.9	2	6	248	0.00	30.040 
15:05	31.8	31.8	31.8	89	28.9	2	5	248	0.00	30.040 
15:10	31.8	31.8	31.8	89	28.9	2	6	248	0.00	30.040 
15:15	31.8	31.8	31.8	90	29.2	3	7	248	0.00	30.033 
15:20	31.8	31.8	31.8	90	29.2	2	4	248	0.00	30.033 
15:25	31.8	31.8	31.8	90	29.2	2	6	248	0.00	30.033 
15:30	31.8	31.8	31.8	90	29.2	2	4	248	0.00	30.032 
15:35	31.8	31.8	31.8	90	29.2	2	5	248	0.00	30.032 
15:40	31.8	31.8	31.8	90	29.2	1	4	248	0.00	30.032 
15:45	31.8	31.8	31.8	90	29.2	1	4	248	0.00	30.029 
15:50	31.6	31.6	31.6	91	29.3	1	6	248	0.00	30.029 
15:55	31.6	31.6	31.6	91	29.3	2	6	248	0.00	30.029 
16:00	31.6	31.6	31.6	91	29.3	2	5	248	0.00	30.027 
16:05	31.6	31.6	31.6	91	29.3	1	3	248	0.00	30.027 
16:10	31.6	31.6	31.6	90	29.0	2	5	248	0.00	30.027 
16:15	31.6	31.6	31.6	90	29.0	1	5	248	0.00	30.025 
16:20	31.6	31.6	31.6	90	29.0	2	7	248	0.00	30.025 
16:25	31.6	31.6	31.6	90	29.0	1	5	225	0.00	30.025 
16:30	31.6	31.6	31.6	90	29.0	2	7	248	0.00	30.036 
16:35	31.6	31.6	31.6	90	29.0	2	7	248	0.00	30.036 
16:40	31.6	31.6	31.6	90	29.0	1	6	248	0.00	30.036 
16:45	31.5	31.5	31.5	90	28.9	2	5	248	0.00	30.038 
16:50	31.5	31.5	31.5	90	28.9	1	4	248	0.00	30.038 
16:55	31.5	31.5	31.5	91	29.2	1	4	248	0.00	30.038 
17:00	31.5	31.5	31.5	90	28.9	1	4	248	0.00	30.043 
17:05	31.6	31.6	31.6	91	29.3	2	6	248	0.00	30.043 
17:10	31.6	31.6	31.6	91	29.3	1	5	248	0.00	30.043 
17:15	31.5	31.5	31.5	91	29.2	2	5	248	0.00	30.036 
17:20	31.5	31.5	31.5	91	29.2	1	3	248	0.00	30.036 
17:25	31.5	31.5	31.5	91	29.2	0	2	248	0.00	30.036 
17:30	31.5	31.5	31.5	91	29.2	1	4	248	0.00	30.029 
17:35	31.5	31.5	31.5	91	29.2	1	5	248	0.00	30.029 
17:40	31.5	31.5	31.5	91	29.2	1	4	248	0.00	30.029 
17:45	31.3	31.3	31.3	91	29.0	1	5	248	0.00	30.028 
17:50	31.3	31.3	31.3	91	29.0	1	4	248	0.00	30.028 
17:55	31.3	31.3	31.3	91	29.0	1	5	248	0.00	30.028 
18:00	31.5	31.5	31.5	91	29.2	0	3	248	0.00	30.024 
18:05	31.5	31.5	31.5	91	29.2	1	6	248	0.00	30.024 
18:10	31.5	31.5	31.5	91	29.2	2	6	248	0.00	30.024 
18:15	31.5	31.5	31.5	91	29.2	1	4	248	0.00	30.031 
18:20	31.5	31.5	31.5	91	29.2	2	6	248	0.00	30.031 
18:25	31.6	31.6	31.6	91	29.3	1	3	248	0.00	30.031 
18:30	31.6	31.6	31.6	91	29.3	1	5	248	0.00	30.033 
18:35	31.6	31.6	31.6	91	29.3	1	4	248	0.00	30.033 
18:40	31.6	31.6	31.6	91	29.3	1	5	248	0.00	30.033 
18:45	31.6	31.6	31.6	91	29.3	1	5	248	0.00	30.040 
18:50	31.6	31.6	31.6	91	29.3	2	5	248	0.00	30.040 
18:55	31.6	31.6	31.6	91	29.3	1	4	248	0.00	30.040 
19:00	31.6	31.6	31.6	91	29.3	2	7	248	0.00	30.036 
19:05	31.6	31.6	31.6	90	29.0	1	4	248	0.00	30.036 
19:10	31.8	31.8	31.8	90	29.2	2	5	248	0.00	30.036 
19:15	31.8	31.8	31.8	90	29.2	1	5	248	0.00	30.035 
19:20	31.8	31.8	31.8	90	29.2	1	5	248	0.00	30.035 
19:25	31.8	31.8	31.8	90	29.2	2	5	248	0.00	30.035 
19:30	31.8	31.8	31.8	90	29.2	1	4	225	0.00	30.043 
19:35	31.8	31.8	31.8	90	29.2	1	4	225	0.00	30.043 
19:40	31.8	31.8	31.8	90	29.2	1	3	248	0.00	30.043 
19:45	31.8	31.8	31.8	90	29.2	1	4	248	0.00	30.042 
19:50	31.8	31.8	31.8	90	29.2	1	4	270	0.00	30.042 
19:55	31.8	31.8	31.8	90	29.2	1	3	270	0.00	30.042 
20:00	31.8	31.8	31.8	90	29.2	1	3	270	0.00	30.048 
20:05	31.8	31.8	31.8	90	29.2	2	5	248	0.00	30.048 
20:10	31.9	31.9	31.9	90	29.3	1	5	248	0.00	30.048 
20:15	31.9	31.9	31.9	90	29.3	1	4	248	0.00	30.052 
20:20	31.9	31.9	31.9	90	29.3	1	4	248	0.00	30.052 
20:25	31.9	31.9	31.9	90	29.3	1	5	248	0.00	30.052 
20:30	31.9	31.9	31.9	90	29.3	1	3	248	0.00	30.049 
20:35	31.9	31.9	31.9	90	29.3	1	3	248	0.00	30.049 
20:40	31.9	31.9	31.9	89	29.0	1	3	248	0.00	30.049 
20:45	31.9	31.9	31.9	89	29.0	1	5	248	0.00	30.045 
20:50	31.9	31.9	31.9	89	29.0	0	2	248	0.00	30.045 
20:55	31.9	31.9	31.9	89	29.0	0	2	248	0.00	30.045 
21:00	31.9	31.9	31.9	89	29.0	1	3	248	0.00	30.040 
21:05	31.9	31.9	31.9	89	29.0	1	2	248	0.00	30.040 
21:10	31.9	31.9	31.9	89	29.0	0	3	248	0.00	30.040 
21:15	31.9	31.9	31.9	90	29.3	0	2	248	0.00	30.048 
21:20	31.9	31.9	31.9	90	29.3	1	3	248	0.00	30.048 
21:25	31.9	31.9	31.9	90	29.3	1	3	248	0.00	30.048 
21:30	31.9	31.9	31.9	90	29.3	0	2	248	0.00	30.048 
21:35	31.9	31.9	31.9	90	29.3	0	2	248	0.00	30.048 
21:40	31.9	31.9	31.9	90	29.3	0	2	248	0.00	30.048 
21:45	31.8	31.8	31.8	90	29.2	0	1	248	0.00	30.037 
21:50	31.8	31.8	31.8	90	29.2	0	1	248	0.00	30.037 
21:55	31.8	31.8	31.8	90	29.2	0	1	248	0.00	30.037 
22:00	31.8	31.8	31.8	90	29.2	0	2	248	0.00	30.037 
22:05	31.8	31.8	31.8	90	29.2	0	2	248	0.00	30.037 
22:10	31.8	31.8	31.8	90	29.2	0	2	248	0.00	30.037 
22:15	31.8	31.8	31.8	90	29.2	0	1	248	0.00	30.035 
22:20	31.6	31.6	31.6	89	28.7	0	2	248	0.00	30.035 
22:25	31.6	31.6	31.6	89	28.7	0	2	248	0.00	30.035 
22:30	31.6	31.6	31.6	89	28.7	0	1	248	0.00	30.037 
22:35	31.5	31.5	31.5	89	28.6	0	1	248	0.00	30.037 
22:40	31.3	31.3	31.3	89	28.4	0	1	248	0.00	30.037 
22:45	31.3	31.3	31.3	88	28.2	0	1	248	0.00	30.053 
22:50	31.3	31.3	31.3	88	28.2	0	2	248	0.00	30.053 
22:55	31.3	31.3	31.3	88	28.2	0	1	248	0.00	30.053 
23:00	31.3	31.3	31.3	88	28.2	0	1	248	0.00	30.054 
23:05	31.2	31.2	31.2	88	28.1	0	2	248	0.00	30.054 
23:10	31.2	31.2	31.2	87	27.8	0	2	248	0.00	30.054 
23:15	31.2	31.2	31.2	87	27.8	0	1	248	0.00	30.053 
23:20	31.0	31.0	31.0	87	27.6	0	1	248	0.00	30.053 
23:25	31.0	31.0	31.0	87	27.6	0	2	248	0.00	30.053 
23:30	31.0	31.0	31.0	87	27.6	0	2	248	0.00	30.054 
23:35	30.9	30.9	30.9	86	27.2	0	1	248	0.00	30.054 
23:40	30.9	30.9	30.9	86	27.2	0	1	248	0.00	30.054 
23:45	30.7	30.7	30.7	86	27.0	0	1	248	0.00	30.060 
23:50	30.7	30.7	30.7	86	27.0	0	1	248	0.00	30.060 
23:55	30.7	30.7	30.7	86	27.0	0	2	248	0.00	30.060 

CoCoRaHS
IN-AL-39
A2 Web Hosting
Creative Commons License
GoDaddy
search engine by freefind advanced

loaded 2018-11-13 01:37:02 • last modified 2010-11-18 10:43:29
Privacy PolicyDisclaimer
• wx.awcolley.com is powered by PmWiki v.2002016 •
• all content (unless otherwise noted) © 2018 A W Colley